Moville, Iowa
Current Conditions -  °F | °C
As of 1:52 AM on Thursday 29 Jan 2015 (Local Time) from KSUX Reporting Station
Overcast Overcast  
Wind Chill: 22°   Ceiling: 1900
Heat Index: 35°   Visibility: 10mi
Dew Point: 30°   Wind: 26mph
Humidity: 82%   Direction: 330°NNW
Pressure: 30.08"   Gusts: 35mph
Location:  42.49°N, 96.07°W
Report Text: KSUX 290752Z AUTO 33023G30KT 10SM OVC019 02/M01 A3008 RMK AO2 PK WND 33035/0721 SNB32E41 SLP192 P0000 T00171011
Loading
Personal Weather Stations






























Interactive Weather Map New forecast layout! Learn more

10-Day Weather Forecast

Advertisements
Track Severe Weather on mobile